Arispe, Iowa
Current Conditions -  °F | °C
As of 10:55 PM on Saturday 22 Nov 2014 (Local Time) from KCSQ Reporting Station
Overcast Overcast  
Wind Chill: 52°   Ceiling: 800
Heat Index: 52°   Visibility: 10mi
Dew Point: 52°   Wind: 17mph
Humidity: 100%   Direction: 210°SSW
Pressure: 29.65"   Gusts: NA
Location:  40.95°N, 94.22°W
Report Text: KCSQ 230455Z AUTO 21015KT 10SM OVC008 11/11 A2965 RMK AO2
Loading
Personal Weather Stations






























Interactive Weather Map New forecast layout! Learn more

10-Day Weather Forecast

Advertisements
Track Severe Weather on mobile